Morrisville, Missouri
Current Conditions -  °F | °C
As of 5:52 AM on Wednesday 28 Jan 2015 (Local Time) from KSGF Reporting Station
Clear Clear  
Wind Chill: 31°   Ceiling: Unl
Heat Index: 39°   Visibility: 10mi
Dew Point: 33°   Wind: 15mph
Humidity: 79%   Direction: 190°S
Pressure: 30.06"   Gusts: 30mph
Location:  37.48°N, 93.43°W
Report Text: KSGF 281152Z 19013G26KT 10SM CLR 04/01 A3006 RMK AO2 PK WND 15026/1143 SLP181 T00390006 10083 20039 57005
Loading
Personal Weather Stations






























Interactive Weather Map New forecast layout! Learn more

10-Day Weather Forecast

Advertisements
Track Severe Weather on mobile